Terminal Aerodrome Forecast
Issued by NWS

Home | Current Version | Previous Version | Text Only | Print | Product List | Glossary On
Versions: 1 2 3 4 5 6 7 8 9 10 11 12 13 14
000
FTUS46 KMTR 301120
TAFOAK
TAF
KOAK 301120Z 3012/3118 28016KT 6SM -DZ BR BKN007 OVC020
     FM301400 30015KT P6SM SCT012 SCT150
     FM301800 29015G21KT P6SM FEW012 SCT200
     FM302200 29024G34KT P6SM FEW060 SCT200
     FM310500 29012G20KT P6SM FEW030 SCT060 SCT250
     FM310900 35008KT P6SM SKC=

USA.gov is the U.S. government's official web portal to all federal, state and local government web resources and services.